Time;durP1;ratioP1;P1;durP2;ratioP2;P2;SDS_P1;SDS_P2;PMS_P1;PMS_P2;Temp;Humidity;BMP_temperature;BMP_pressure;BME280_temperature;BME280_humidity;BME280_pressure;Samples;Min_cycle;Max_cycle;Signal;HPM_P1;HPM_P2
2023/01/05 00:00:47;;;;;;;;;;;22.00;99.90;;;;;;5084989;27;19962;-72
2023/01/05 00:03:12;;;;;;;;;;;22.00;99.90;;;;;;5080012;28;19963;-58
2023/01/05 00:05:38;;;;;;;;;;;22.00;99.90;;;;;;5080991;28;20045;-66
2023/01/05 00:08:03;;;;;;;;;;;22.00;99.90;;;;;;5083035;27;19916;-67
2023/01/05 00:24:13;;;;;;;;;;;22.10;99.90;;;;;;5084782;28;20377;-56
2023/01/05 00:26:38;;;;;;;;;;;22.10;99.90;;;;;;5083046;27;19916;-68
2023/01/05 00:29:04;;;;;;;;;;;22.10;99.90;;;;;;5079368;28;19916;-71
2023/01/05 00:31:29;;;;;;;;;;;22.10;99.90;;;;;;5084194;28;20071;-70
2023/01/05 00:33:54;;;;;;;;;;;22.10;99.90;;;;;;5097824;27;19924;-71
2023/01/05 00:36:20;;;;;;;;;;;22.10;99.90;;;;;;5086172;28;19916;-64
2023/01/05 00:38:45;;;;;;;;;;;22.10;99.90;;;;;;5080104;27;20274;-64
2023/01/05 00:41:11;;;;;;;;;;;22.10;99.90;;;;;;5084705;28;20012;-64
2023/01/05 00:43:36;;;;;;;;;;;22.10;99.90;;;;;;5097129;28;20436;-63
2023/01/05 00:46:04;;;;;;;;;;;22.10;99.90;;;;;;5095853;27;22315;-65
2023/01/05 00:48:29;;;;;;;;;;;22.00;99.90;;;;;;5094627;28;19912;-63
2023/01/05 00:50:55;;;;;;;;;;;22.00;99.90;;;;;;5096571;28;19925;-59
2023/01/05 00:53:20;;;;;;;;;;;22.00;99.80;;;;;;5084958;27;20267;-73
2023/01/05 00:55:54;;;;;;;;;;;22.00;99.90;;;;;;5087080;28;20039;-68
2023/01/05 00:58:19;;;;;;;;;;;22.10;99.90;;;;;;5077819;27;19916;-68
2023/01/05 01:00:45;;;;;;;;;;;22.10;99.90;;;;;;5085658;27;19916;-69
2023/01/05 01:03:10;;;;;;;;;;;22.10;99.90;;;;;;5084680;28;19966;-71
2023/01/05 01:05:36;;;;;;;;;;;22.10;99.90;;;;;;5085054;27;19928;-63
2023/01/05 01:08:02;;;;;;;;;;;22.10;99.90;;;;;;5082675;27;19923;-58
2023/01/05 01:10:27;;;;;;;;;;;22.10;99.90;;;;;;5085672;28;19915;-62
2023/01/05 01:12:53;;;;;;;;;;;22.10;99.90;;;;;;5088271;28;20316;-65
2023/01/05 01:15:19;;;;;;;;;;;22.10;99.90;;;;;;5097527;28;19915;-57
2023/01/05 01:17:45;;;;;;;;;;;22.10;99.90;;;;;;5097854;28;19916;-57
2023/01/05 01:20:11;;;;;;;;;;;22.10;99.90;;;;;;5096948;28;19912;-59
2023/01/05 01:22:36;;;;;;;;;;;22.10;99.90;;;;;;5091916;28;20289;-58
2023/01/05 01:25:02;;;;;;;;;;;22.10;99.90;;;;;;5087778;28;19951;-67
2023/01/05 01:27:29;;;;;;;;;;;22.10;99.90;;;;;;5098036;28;19916;-70
2023/01/05 01:29:54;;;;;;;;;;;22.10;99.90;;;;;;5097856;28;19912;-69
2023/01/05 01:32:20;;;;;;;;;;;22.10;99.90;;;;;;5097532;28;20048;-71
2023/01/05 01:34:45;;;;;;;;;;;22.10;99.90;;;;;;5087540;28;19916;-67
2023/01/05 01:37:11;;;;;;;;;;;22.10;99.90;;;;;;5097139;28;20012;-68
2023/01/05 01:39:36;;;;;;;;;;;22.10;99.90;;;;;;5087482;28;19923;-66
2023/01/05 01:42:02;;;;;;;;;;;22.10;99.90;;;;;;5095733;28;19927;-67
2023/01/05 01:44:46;;;;;;;;;;;22.10;99.90;;;;;;5095957;28;19920;-55
2023/01/05 01:47:17;;;;;;;;;;;22.00;99.80;;;;;;5092658;28;19923;-56
2023/01/05 01:49:43;;;;;;;;;;;21.80;97.90;;;;;;5096867;28;19922;-57
2023/01/05 01:52:08;;;;;;;;;;;21.70;99.80;;;;;;5085298;28;19915;-57
2023/01/05 01:54:34;;;;;;;;;;;21.70;99.90;;;;;;5088248;28;20643;-56
2023/01/05 01:56:59;;;;;;;;;;;21.70;99.90;;;;;;5083810;28;19916;-65
2023/01/05 01:59:25;;;;;;;;;;;21.70;99.90;;;;;;5085909;28;19916;-65
2023/01/05 02:01:53;;;;;;;;;;;21.70;99.90;;;;;;5089355;28;19927;-66
2023/01/05 02:04:19;;;;;;;;;;;21.80;99.90;;;;;;5096751;28;19920;-62
2023/01/05 02:06:45;;;;;;;;;;;21.80;99.90;;;;;;5097032;28;20818;-59
2023/01/05 02:09:10;;;;;;;;;;;21.90;99.90;;;;;;5095688;28;19916;-57
2023/01/05 02:11:55;;;;;;;;;;;21.90;99.90;;;;;;5097329;28;20388;-61
2023/01/05 02:14:40;;;;;;;;;;;21.90;99.90;;;;;;5095664;28;20747;-56
2023/01/05 02:17:11;;;;;;;;;;;21.90;99.90;;;;;;5096740;28;20406;-53
2023/01/05 02:19:39;;;;;;;;;;;21.90;99.90;;;;;;5096592;28;19915;-62
2023/01/05 02:22:24;;;;;;;;;;;21.90;99.90;;;;;;5096418;28;19920;-61
2023/01/05 02:25:05;;;;;;;;;;;21.90;99.90;;;;;;5077359;28;19920;-57
2023/01/05 02:27:38;;;;;;;;;;;21.90;99.90;;;;;;5094078;28;19916;-65
2023/01/05 02:30:14;;;;;;;;;;;22.00;99.90;;;;;;5096144;28;19916;-62
2023/01/05 02:32:51;;;;;;;;;;;22.00;99.90;;;;;;5099410;28;19916;-63
2023/01/05 02:35:17;;;;;;;;;;;22.00;99.90;;;;;;5099237;28;20282;-63
2023/01/05 02:37:46;;;;;;;;;;;22.00;99.90;;;;;;5099518;27;20232;-65
2023/01/05 02:40:21;;;;;;;;;;;22.00;99.90;;;;;;5099403;28;19919;-63
2023/01/05 02:42:48;;;;;;;;;;;22.00;99.90;;;;;;5098920;27;19916;-63
2023/01/05 02:45:15;;;;;;;;;;;22.00;99.90;;;;;;5098129;27;19919;-66
2023/01/05 02:47:41;;;;;;;;;;;22.00;99.90;;;;;;5099788;27;19920;-63
2023/01/05 02:50:13;;;;;;;;;;;22.00;99.90;;;;;;5098350;27;19912;-65
2023/01/05 02:52:53;;;;;;;;;;;22.00;99.90;;;;;;5098956;28;19922;-64
2023/01/05 02:55:21;;;;;;;;;;;22.00;99.90;;;;;;5098625;28;20658;-60
2023/01/05 02:57:58;;;;;;;;;;;22.00;99.90;;;;;;5099121;27;20014;-60
2023/01/05 03:00:25;;;;;;;;;;;22.00;99.90;;;;;;5086996;28;19919;-61
2023/01/05 03:02:54;;;;;;;;;;;22.00;99.90;;;;;;5088392;27;20002;-56
2023/01/05 03:05:22;;;;;;;;;;;22.10;99.90;;;;;;5082048;28;19926;-59
2023/01/05 03:07:49;;;;;;;;;;;22.10;99.90;;;;;;5086262;28;20146;-59
2023/01/05 03:15:45;;;;;;;;;;;22.10;99.90;;;;;;5089351;28;19922;-64
2023/01/05 03:18:13;;;;;;;;;;;22.10;99.90;;;;;;5088141;28;20050;-66
2023/01/05 03:20:40;;;;;;;;;;;22.10;99.90;;;;;;5087801;28;19916;-65
2023/01/05 03:37:03;;;;;;;;;;;22.10;99.90;;;;;;5097561;28;20003;-60
2023/01/05 03:39:29;;;;;;;;;;;22.00;99.90;;;;;;5098190;28;20792;-60
2023/01/05 03:41:55;;;;;;;;;;;22.00;99.90;;;;;;5097860;28;19924;-63
2023/01/05 03:44:21;;;;;;;;;;;22.00;99.90;;;;;;5098554;28;19920;-61
2023/01/05 03:46:46;;;;;;;;;;;22.00;99.90;;;;;;5098964;27;19951;-62
2023/01/05 03:49:12;;;;;;;;;;;22.00;99.90;;;;;;5096531;27;19915;-62
2023/01/05 03:51:38;;;;;;;;;;;22.00;99.90;;;;;;5098845;28;20331;-62
2023/01/05 03:54:03;;;;;;;;;;;22.00;99.90;;;;;;5098108;28;19918;-63
2023/01/05 03:56:29;;;;;;;;;;;22.00;99.90;;;;;;5097343;28;19969;-62
2023/01/05 03:58:54;;;;;;;;;;;22.00;99.90;;;;;;5098395;28;20719;-63
2023/01/05 04:01:20;;;;;;;;;;;22.00;99.90;;;;;;5095757;27;19985;-62
2023/01/05 04:03:45;;;;;;;;;;;22.00;99.90;;;;;;5098432;27;20469;-62
2023/01/05 04:06:10;;;;;;;;;;;22.00;99.90;;;;;;5095450;28;19974;-61
2023/01/05 04:08:36;;;;;;;;;;;22.00;99.90;;;;;;5095655;28;20366;-61
2023/01/05 04:11:12;;;;;;;;;;;21.90;99.90;;;;;;5099326;28;19922;-62
2023/01/05 04:13:37;;;;;;;;;;;21.90;99.90;;;;;;5098183;27;19923;-62
2023/01/05 04:16:03;;;;;;;;;;;21.90;99.90;;;;;;5098246;28;20296;-64
2023/01/05 04:18:28;;;;;;;;;;;21.90;99.90;;;;;;5098304;27;19915;-63
2023/01/05 04:20:54;;;;;;;;;;;21.90;99.90;;;;;;5098236;27;19919;-64
2023/01/05 04:23:19;;;;;;;;;;;21.90;99.90;;;;;;5097870;27;20008;-64
2023/01/05 04:25:45;;;;;;;;;;;21.90;99.90;;;;;;5096207;28;19951;-62
2023/01/05 04:28:11;;;;;;;;;;;21.90;99.90;;;;;;5098023;28;19919;-63
2023/01/05 04:30:36;;;;;;;;;;;21.90;99.90;;;;;;5097730;27;19922;-61
2023/01/05 04:33:02;;;;;;;;;;;21.80;99.90;;;;;;5097916;28;19912;-61
2023/01/05 04:35:27;;;;;;;;;;;21.80;99.90;;;;;;5098062;27;20661;-62
2023/01/05 04:37:52;;;;;;;;;;;21.80;99.90;;;;;;5095719;28;19941;-61
2023/01/05 04:40:18;;;;;;;;;;;21.80;99.90;;;;;;5097829;28;19961;-61
2023/01/05 04:42:43;;;;;;;;;;;21.80;99.90;;;;;;5097792;28;19916;-61
2023/01/05 04:45:09;;;;;;;;;;;21.80;99.90;;;;;;5097648;28;20289;-61
2023/01/05 04:47:34;;;;;;;;;;;21.80;99.90;;;;;;5097800;28;20286;-61
2023/01/05 04:50:00;;;;;;;;;;;21.80;99.90;;;;;;5097507;28;19943;-60
2023/01/05 04:52:25;;;;;;;;;;;21.80;99.90;;;;;;5087335;28;19964;-58
2023/01/05 04:54:50;;;;;;;;;;;21.70;99.90;;;;;;5086718;28;19920;-58
2023/01/05 04:57:16;;;;;;;;;;;21.70;99.90;;;;;;5087849;28;19916;-58
2023/01/05 04:59:41;;;;;;;;;;;21.80;99.90;;;;;;5087774;28;19923;-58
2023/01/05 05:02:07;;;;;;;;;;;21.70;99.90;;;;;;5097385;28;20801;-58
2023/01/05 05:04:33;;;;;;;;;;;21.70;99.90;;;;;;5096980;28;19919;-59
2023/01/05 05:06:58;;;;;;;;;;;21.80;99.90;;;;;;5097228;27;20566;-59
2023/01/05 05:09:23;;;;;;;;;;;21.70;99.90;;;;;;5095052;28;20405;-59
2023/01/05 05:11:49;;;;;;;;;;;21.70;99.90;;;;;;5097195;28;20417;-63
2023/01/05 05:14:14;;;;;;;;;;;21.70;99.90;;;;;;5097181;28;19916;-62
2023/01/05 05:16:40;;;;;;;;;;;21.70;99.90;;;;;;5096521;28;19907;-62
2023/01/05 05:19:05;;;;;;;;;;;21.70;99.90;;;;;;5097029;28;19961;-62
2023/01/05 05:21:30;;;;;;;;;;;21.70;99.90;;;;;;5096930;28;19969;-62
2023/01/05 05:23:56;;;;;;;;;;;21.70;99.90;;;;;;5096367;28;20370;-63
2023/01/05 05:26:21;;;;;;;;;;;21.70;99.90;;;;;;5096430;28;19916;-62
2023/01/05 05:28:47;;;;;;;;;;;21.70;99.90;;;;;;5096981;28;19923;-60
2023/01/05 05:31:12;;;;;;;;;;;21.70;99.90;;;;;;5096859;28;19916;-63
2023/01/05 05:33:38;;;;;;;;;;;21.70;99.90;;;;;;5097224;28;19912;-63
2023/01/05 05:36:04;;;;;;;;;;;21.70;99.90;;;;;;5097126;28;20287;-59
2023/01/05 05:38:29;;;;;;;;;;;21.80;99.90;;;;;;5095081;28;20358;-62
2023/01/05 05:40:55;;;;;;;;;;;21.80;99.90;;;;;;5096587;27;19959;-61
2023/01/05 05:43:20;;;;;;;;;;;21.80;99.90;;;;;;5097059;28;19919;-61
2023/01/05 05:45:45;;;;;;;;;;;21.80;99.90;;;;;;5096888;28;20286;-63
2023/01/05 05:48:11;;;;;;;;;;;21.80;99.90;;;;;;5096789;28;19926;-62
2023/01/05 05:50:36;;;;;;;;;;;21.80;99.90;;;;;;5095313;28;19916;-62
2023/01/05 05:53:02;;;;;;;;;;;21.80;99.90;;;;;;5095947;28;19955;-60
2023/01/05 05:55:27;;;;;;;;;;;21.80;99.90;;;;;;5096658;28;19916;-59
2023/01/05 05:57:52;;;;;;;;;;;21.80;99.90;;;;;;5094447;28;20327;-59
2023/01/05 06:00:18;;;;;;;;;;;21.80;99.90;;;;;;5084566;28;20328;-59
2023/01/05 06:02:43;;;;;;;;;;;21.80;99.90;;;;;;5086924;28;19916;-59
2023/01/05 06:05:09;;;;;;;;;;;21.70;99.90;;;;;;5085597;28;19930;-59
2023/01/05 06:07:34;;;;;;;;;;;21.70;99.90;;;;;;5090351;27;19919;-60
2023/01/05 06:10:00;;;;;;;;;;;21.70;99.90;;;;;;5089828;28;19916;-60
2023/01/05 06:12:25;;;;;;;;;;;21.70;99.90;;;;;;5090384;27;19922;-60
2023/01/05 06:14:50;;;;;;;;;;;21.70;99.90;;;;;;5090336;28;20294;-61
2023/01/05 06:17:16;;;;;;;;;;;21.70;99.90;;;;;;5090133;28;19916;-60
2023/01/05 06:19:41;;;;;;;;;;;21.70;99.90;;;;;;5088057;27;20286;-59
2023/01/05 06:22:07;;;;;;;;;;;21.70;99.90;;;;;;5091064;27;19919;-60
2023/01/05 06:24:32;;;;;;;;;;;21.70;99.90;;;;;;5090099;27;19963;-60
2023/01/05 06:26:57;;;;;;;;;;;21.70;99.90;;;;;;5090480;28;19916;-60
2023/01/05 06:29:23;;;;;;;;;;;21.70;99.90;;;;;;5091023;27;19916;-60
2023/01/05 06:31:48;;;;;;;;;;;21.70;99.90;;;;;;5090053;28;19923;-61
2023/01/05 06:34:14;;;;;;;;;;;21.70;99.90;;;;;;5087870;27;19923;-61
2023/01/05 06:36:39;;;;;;;;;;;21.70;99.90;;;;;;5089463;27;19951;-61
2023/01/05 06:39:05;;;;;;;;;;;21.70;99.90;;;;;;5090890;27;19922;-63
2023/01/05 06:41:30;;;;;;;;;;;21.70;99.90;;;;;;5087615;27;20127;-64
2023/01/05 06:43:56;;;;;;;;;;;21.70;99.90;;;;;;5089448;28;19993;-62
2023/01/05 06:46:21;;;;;;;;;;;21.70;99.90;;;;;;5087924;28;19922;-60
2023/01/05 06:48:46;;;;;;;;;;;21.70;99.90;;;;;;5086309;28;20359;-58
2023/01/05 06:51:12;;;;;;;;;;;21.60;99.90;;;;;;5093365;28;20436;-58
2023/01/05 06:53:37;;;;;;;;;;;21.70;99.90;;;;;;5086783;28;19916;-64
2023/01/05 06:56:03;;;;;;;;;;;21.60;99.90;;;;;;5089887;28;19923;-64
2023/01/05 06:58:28;;;;;;;;;;;21.60;99.90;;;;;;5090174;27;19916;-63
2023/01/05 07:00:54;;;;;;;;;;;21.60;99.90;;;;;;5089410;27;20517;-63
2023/01/05 07:03:19;;;;;;;;;;;21.60;99.90;;;;;;5087445;27;19969;-62
2023/01/05 07:05:45;;;;;;;;;;;21.60;99.90;;;;;;5089162;28;19926;-63
2023/01/05 07:08:10;;;;;;;;;;;21.60;99.90;;;;;;5089393;27;19920;-62
2023/01/05 07:10:35;;;;;;;;;;;21.60;99.90;;;;;;5088733;27;19945;-62
2023/01/05 07:13:01;;;;;;;;;;;21.60;99.90;;;;;;5088210;28;19916;-60
2023/01/05 07:15:26;;;;;;;;;;;21.60;99.90;;;;;;5087269;27;20385;-60
2023/01/05 07:17:52;;;;;;;;;;;21.60;99.90;;;;;;5088254;28;19916;-60
2023/01/05 07:20:17;;;;;;;;;;;21.60;99.90;;;;;;5089404;28;19916;-60
2023/01/05 07:22:43;;;;;;;;;;;21.60;99.90;;;;;;5099009;27;19915;-59
2023/01/05 07:25:08;;;;;;;;;;;21.60;99.90;;;;;;5099180;27;20006;-59
2023/01/05 07:27:34;;;;;;;;;;;21.60;99.90;;;;;;5099381;27;20370;-59
2023/01/05 07:29:59;;;;;;;;;;;21.50;99.90;;;;;;5096393;28;19916;-59
2023/01/05 07:32:25;;;;;;;;;;;21.50;99.90;;;;;;5098381;27;19922;-64
2023/01/05 07:34:50;;;;;;;;;;;21.50;99.90;;;;;;5098742;28;20291;-67
2023/01/05 07:37:15;;;;;;;;;;;21.50;99.90;;;;;;5098754;27;20440;-62
2023/01/05 07:39:41;;;;;;;;;;;21.50;99.90;;;;;;5090499;27;20393;-64
2023/01/05 07:42:06;;;;;;;;;;;21.50;99.90;;;;;;5088161;27;19978;-63
2023/01/05 07:44:32;;;;;;;;;;;21.50;99.90;;;;;;5086706;27;19920;-64
2023/01/05 07:46:57;;;;;;;;;;;21.50;99.90;;;;;;5089129;28;19920;-63
2023/01/05 07:49:23;;;;;;;;;;;21.50;99.90;;;;;;5089047;27;19916;-62
2023/01/05 07:51:48;;;;;;;;;;;21.50;99.90;;;;;;5089045;27;20339;-62
2023/01/05 07:54:14;;;;;;;;;;;21.50;99.90;;;;;;5088983;28;19951;-62
2023/01/05 07:56:39;;;;;;;;;;;21.50;99.90;;;;;;5086546;27;19912;-61
2023/01/05 07:59:05;;;;;;;;;;;21.50;99.90;;;;;;5088258;28;19938;-61
2023/01/05 08:01:30;;;;;;;;;;;21.50;99.90;;;;;;5087817;28;20408;-63
2023/01/05 08:03:56;;;;;;;;;;;21.50;99.90;;;;;;5087897;28;19920;-61
2023/01/05 08:06:21;;;;;;;;;;;21.50;99.90;;;;;;5088004;28;19916;-59
2023/01/05 08:08:46;;;;;;;;;;;21.50;99.90;;;;;;5087989;28;20009;-60
2023/01/05 08:11:16;;;;;;;;;;;21.50;99.90;;;;;;5085894;27;20417;-60
2023/01/05 08:16:30;;;;;;;;;;;21.50;99.90;;;;;;5086968;27;19965;-60
2023/01/05 08:18:56;;;;;;;;;;;21.50;99.90;;;;;;5087573;27;19912;-60
2023/01/05 08:21:21;;;;;;;;;;;21.50;99.90;;;;;;5090791;28;22531;-58
2023/01/05 08:23:48;;;;;;;;;;;21.50;99.90;;;;;;5096358;28;19920;-59
2023/01/05 08:26:14;;;;;;;;;;;21.50;99.90;;;;;;5098044;28;19972;-61
2023/01/05 08:28:40;;;;;;;;;;;21.50;99.90;;;;;;5095805;27;19919;-60
2023/01/05 08:31:10;;;;;;;;;;;21.50;99.90;;;;;;5098033;28;19912;-62
2023/01/05 08:33:36;;;;;;;;;;;21.50;99.90;;;;;;5097653;27;20832;-61
2023/01/05 08:36:06;;;;;;;;;;;21.50;99.90;;;;;;5097957;28;19977;-60
2023/01/05 08:38:31;;;;;;;;;;;21.50;99.90;;;;;;5096794;28;19919;-58
2023/01/05 08:40:58;;;;;;;;;;;21.50;99.90;;;;;;5097370;27;19930;-60
2023/01/05 08:43:24;;;;;;;;;;;21.50;99.90;;;;;;5097676;27;19919;-60
2023/01/05 08:45:49;;;;;;;;;;;21.50;99.90;;;;;;5097593;28;19961;-61
2023/01/05 08:48:15;;;;;;;;;;;21.50;99.90;;;;;;5097688;28;19915;-60
2023/01/05 08:50:40;;;;;;;;;;;21.50;99.90;;;;;;5097947;28;20393;-61
2023/01/05 08:53:05;;;;;;;;;;;21.60;99.90;;;;;;5096749;27;19919;-61
2023/01/05 08:55:31;;;;;;;;;;;21.50;99.90;;;;;;5091957;28;19916;-61
2023/01/05 08:57:56;;;;;;;;;;;21.50;99.90;;;;;;5100496;27;19919;-61
2023/01/05 09:00:22;;;;;;;;;;;21.60;99.90;;;;;;5094492;28;19963;-62
2023/01/05 09:02:47;;;;;;;;;;;21.60;99.90;;;;;;5097804;27;19958;-61
2023/01/05 09:05:13;;;;;;;;;;;21.60;99.90;;;;;;5097437;28;19920;-59
2023/01/05 09:07:38;;;;;;;;;;;21.60;99.90;;;;;;5095332;28;19916;-64
2023/01/05 09:10:07;;;;;;;;;;;21.60;99.90;;;;;;5095337;27;19978;-62
2023/01/05 09:12:34;;;;;;;;;;;21.60;99.90;;;;;;5097266;28;20422;-53
2023/01/05 09:14:59;;;;;;;;;;;21.60;98.50;;;;;;5083803;28;19913;-60
2023/01/05 09:17:25;;;;;;;;;;;20.60;94.40;;;;;;5081148;28;20393;-60
2023/01/05 09:19:50;;;;;;;;;;;19.70;95.40;;;;;;5081128;28;19920;-63
2023/01/05 09:22:16;;;;;;;;;;;18.90;96.00;;;;;;5096141;28;20354;-63
2023/01/05 09:24:41;;;;;;;;;;;18.40;97.10;;;;;;5095937;28;19924;-58
2023/01/05 09:27:06;;;;;;;;;;;18.00;96.90;;;;;;5097588;28;20420;-59
2023/01/05 09:29:32;;;;;;;;;;;17.60;97.60;;;;;;5094359;28;20376;-58
2023/01/05 09:31:57;;;;;;;;;;;17.50;99.10;;;;;;5096971;28;20328;-58
2023/01/05 09:34:23;;;;;;;;;;;17.20;97.60;;;;;;5094395;28;20031;-58
2023/01/05 09:36:48;;;;;;;;;;;17.10;98.50;;;;;;5095955;28;19961;-60
2023/01/05 09:39:14;;;;;;;;;;;17.00;98.20;;;;;;5096794;28;20328;-60
2023/01/05 09:41:45;;;;;;;;;;;16.60;98.00;;;;;;5100117;28;19931;-60
2023/01/05 09:44:30;;;;;;;;;;;16.40;98.10;;;;;;5086896;27;20004;-60
2023/01/05 09:46:58;;;;;;;;;;;16.40;98.40;;;;;;5087511;28;19997;-60
2023/01/05 09:49:23;;;;;;;;;;;16.30;97.90;;;;;;5091769;27;19915;-60
2023/01/05 09:51:53;;;;;;;;;;;16.20;97.70;;;;;;5091188;27;19922;-60
2023/01/05 09:54:18;;;;;;;;;;;16.20;96.30;;;;;;5089634;28;19958;-59
2023/01/05 09:56:45;;;;;;;;;;;16.10;96.80;;;;;;5089396;28;19951;-60
2023/01/05 09:59:13;;;;;;;;;;;16.00;97.30;;;;;;5089357;28;19932;-60
2023/01/05 10:01:39;;;;;;;;;;;15.80;96.90;;;;;;5089757;27;19923;-60
2023/01/05 10:04:15;;;;;;;;;;;15.90;96.90;;;;;;5087765;28;19916;-60
2023/01/05 10:06:42;;;;;;;;;;;16.00;96.30;;;;;;5090436;27;20132;-61
2023/01/05 10:09:12;;;;;;;;;;;16.00;96.50;;;;;;5098193;27;19916;-60
2023/01/05 10:15:00;;;;;;;;;;;15.90;94.80;;;;;;5100185;27;19954;-60
2023/01/05 10:17:26;;;;;;;;;;;15.70;94.70;;;;;;5100044;27;19916;-62
2023/01/05 10:19:52;;;;;;;;;;;15.50;95.90;;;;;;5090392;28;19920;-62
2023/01/05 10:22:25;;;;;;;;;;;15.50;94.90;;;;;;5100107;28;19918;-61
2023/01/05 10:24:54;;;;;;;;;;;15.50;95.30;;;;;;5099607;27;19920;-62
2023/01/05 10:27:19;;;;;;;;;;;15.60;95.10;;;;;;5098220;27;19919;-61
2023/01/05 10:29:50;;;;;;;;;;;15.60;94.50;;;;;;5099488;28;19969;-61
2023/01/05 10:32:24;;;;;;;;;;;15.50;94.50;;;;;;5098825;27;19916;-61
2023/01/05 10:35:01;;;;;;;;;;;15.70;94.70;;;;;;5099622;28;19915;-61
2023/01/05 10:37:45;;;;;;;;;;;15.70;93.80;;;;;;5099048;28;19966;-62
2023/01/05 10:40:16;;;;;;;;;;;15.60;94.60;;;;;;5101514;27;20497;-59
2023/01/05 10:42:44;;;;;;;;;;;15.60;93.80;;;;;;5096469;28;20384;-59
2023/01/05 10:45:12;;;;;;;;;;;15.40;94.70;;;;;;5098989;27;20377;-59
2023/01/05 10:47:38;;;;;;;;;;;15.40;94.80;;;;;;5097442;27;19915;-58
2023/01/05 10:50:20;;;;;;;;;;;15.30;94.90;;;;;;5099258;28;19965;-58
2023/01/05 10:52:46;;;;;;;;;;;15.40;95.00;;;;;;5099015;28;19915;-58
2023/01/05 10:55:13;;;;;;;;;;;15.10;95.30;;;;;;5097881;27;19967;-58
2023/01/05 10:57:39;;;;;;;;;;;14.80;95.20;;;;;;5097626;27;19916;-58
2023/01/05 11:00:15;;;;;;;;;;;15.00;95.60;;;;;;5086591;28;19923;-58
2023/01/05 11:02:51;;;;;;;;;;;15.10;95.80;;;;;;5099272;28;20013;-58
2023/01/05 11:05:28;;;;;;;;;;;14.90;95.00;;;;;;5099170;28;19919;-58
2023/01/05 11:07:59;;;;;;;;;;;14.90;95.30;;;;;;5099031;27;19912;-59
2023/01/05 11:10:30;;;;;;;;;;;15.00;95.60;;;;;;5096409;27;20297;-59
2023/01/05 11:13:06;;;;;;;;;;;15.00;95.30;;;;;;5089285;27;20379;-59
2023/01/05 11:15:34;;;;;;;;;;;15.00;95.60;;;;;;5092513;27;19954;-59
2023/01/05 11:18:00;;;;;;;;;;;15.00;95.30;;;;;;5089922;28;20564;-58
2023/01/05 11:20:26;;;;;;;;;;;14.90;95.50;;;;;;5098581;28;19915;-59
2023/01/05 11:22:52;;;;;;;;;;;15.00;94.90;;;;;;5098970;28;19959;-60
2023/01/05 11:25:27;;;;;;;;;;;15.00;95.50;;;;;;5102066;27;20003;-60
2023/01/05 11:28:10;;;;;;;;;;;15.10;95.20;;;;;;5094471;28;19919;-59
2023/01/05 11:30:36;;;;;;;;;;;15.20;95.60;;;;;;5098515;27;19912;-60
2023/01/05 11:33:02;;;;;;;;;;;15.30;94.90;;;;;;5096511;27;20393;-59
2023/01/05 11:35:27;;;;;;;;;;;15.30;95.50;;;;;;5094469;28;19916;-60
2023/01/05 11:37:53;;;;;;;;;;;15.30;94.90;;;;;;5086649;27;19920;-60
2023/01/05 11:40:19;;;;;;;;;;;15.30;95.80;;;;;;5092037;28;20101;-60
2023/01/05 11:42:45;;;;;;;;;;;15.20;95.20;;;;;;5083852;27;19916;-60
2023/01/05 11:45:28;;;;;;;;;;;15.20;95.10;;;;;;5086252;28;19949;-59
2023/01/05 11:47:55;;;;;;;;;;;15.20;95.80;;;;;;5088836;27;19924;-60
2023/01/05 11:50:29;;;;;;;;;;;15.20;94.50;;;;;;5087684;27;19919;-59
2023/01/05 11:52:56;;;;;;;;;;;15.20;95.00;;;;;;5087547;27;19915;-59
2023/01/05 11:55:28;;;;;;;;;;;15.40;95.40;;;;;;5088242;28;19923;-60
2023/01/05 11:57:58;;;;;;;;;;;15.30;95.10;;;;;;5086618;28;19915;-58
2023/01/05 12:00:29;;;;;;;;;;;15.40;95.40;;;;;;5092929;28;19967;-55
2023/01/05 12:03:10;;;;;;;;;;;15.40;94.30;;;;;;5083039;28;19923;-55
2023/01/05 12:05:35;;;;;;;;;;;15.30;94.70;;;;;;5083992;28;19921;-55
2023/01/05 12:08:06;;;;;;;;;;;15.20;95.40;;;;;;5086850;28;19965;-55
2023/01/05 12:10:34;;;;;;;;;;;15.10;97.00;;;;;;5095784;28;19916;-55
2023/01/05 12:13:14;;;;;;;;;;;15.20;96.50;;;;;;5096554;27;20401;-55
2023/01/05 12:15:56;;;;;;;;;;;15.30;96.10;;;;;;5082341;28;19916;-55
2023/01/05 12:18:46;;;;;;;;;;;15.20;95.20;;;;;;5090731;28;19915;-55
2023/01/05 12:21:22;;;;;;;;;;;15.20;95.70;;;;;;5096186;27;19917;-57
2023/01/05 12:24:05;;;;;;;;;;;15.30;95.50;;;;;;5085444;27;19912;-57
2023/01/05 12:26:37;;;;;;;;;;;14.80;95.30;;;;;;5093118;28;20317;-59
2023/01/05 12:29:02;;;;;;;;;;;14.60;95.80;;;;;;5083390;27;19919;-55
2023/01/05 12:31:33;;;;;;;;;;;14.70;95.30;;;;;;5091745;28;20422;-56
2023/01/05 12:34:08;;;;;;;;;;;14.60;95.60;;;;;;5082173;28;20677;-52
2023/01/05 12:36:38;;;;;;;;;;;14.50;96.10;;;;;;5080339;28;20146;-52
2023/01/05 12:39:24;;;;;;;;;;;14.50;95.80;;;;;;5084699;28;19927;-53
2023/01/05 12:41:59;;;;;;;;;;;14.60;96.00;;;;;;5078079;28;19924;-57
2023/01/05 12:44:25;;;;;;;;;;;14.30;95.80;;;;;;5080623;28;20282;-59
2023/01/05 12:46:59;;;;;;;;;;;14.10;96.10;;;;;;5080708;28;19922;-56
2023/01/05 12:49:31;;;;;;;;;;;14.00;96.20;;;;;;5081094;28;19920;-56
2023/01/05 12:52:08;;;;;;;;;;;14.10;95.90;;;;;;5080565;28;19923;-56
2023/01/05 12:54:50;;;;;;;;;;;14.40;95.80;;;;;;5093308;27;19959;-56
2023/01/05 12:57:24;;;;;;;;;;;14.40;95.80;;;;;;5092360;28;19922;-56
2023/01/05 12:59:59;;;;;;;;;;;14.50;95.60;;;;;;5092611;28;20221;-56
2023/01/05 13:02:24;;;;;;;;;;;14.60;95.60;;;;;;5083940;27;20174;-56
2023/01/05 13:04:54;;;;;;;;;;;14.70;95.30;;;;;;5081504;27;20148;-55
2023/01/05 13:07:29;;;;;;;;;;;14.60;95.20;;;;;;5077632;28;19920;-55
2023/01/05 13:10:05;;;;;;;;;;;14.40;95.10;;;;;;5088904;28;19927;-55
2023/01/05 13:12:31;;;;;;;;;;;14.50;94.80;;;;;;5058509;27;19912;-55
2023/01/05 13:15:05;;;;;;;;;;;14.40;95.30;;;;;;5095782;28;20396;-54
2023/01/05 13:17:35;;;;;;;;;;;14.40;95.40;;;;;;5094358;28;19974;-55
2023/01/05 13:20:11;;;;;;;;;;;14.50;95.00;;;;;;5095821;28;20745;-55
2023/01/05 13:22:38;;;;;;;;;;;14.40;94.50;;;;;;5094178;28;19916;-55
2023/01/05 13:25:12;;;;;;;;;;;14.40;95.00;;;;;;5096441;28;19943;-55
2023/01/05 13:27:38;;;;;;;;;;;14.40;95.10;;;;;;5097428;28;19990;-55
2023/01/05 13:30:04;;;;;;;;;;;14.40;94.90;;;;;;5095756;28;19919;-56
2023/01/05 13:32:48;;;;;;;;;;;14.60;94.90;;;;;;5092395;28;19941;-55
2023/01/05 13:35:22;;;;;;;;;;;14.60;95.50;;;;;;5093444;28;19911;-55
2023/01/05 13:37:47;;;;;;;;;;;14.50;94.30;;;;;;5091623;28;20343;-55
2023/01/05 13:40:25;;;;;;;;;;;14.70;95.20;;;;;;5096265;28;19957;-55
2023/01/05 13:43:07;;;;;;;;;;;14.60;95.00;;;;;;5096968;28;20366;-55
2023/01/05 13:45:51;;;;;;;;;;;14.60;95.10;;;;;;5096708;28;19934;-55
2023/01/05 13:48:25;;;;;;;;;;;14.50;95.10;;;;;;5095067;28;19911;-55
2023/01/05 13:51:03;;;;;;;;;;;14.40;95.20;;;;;;5086115;28;20261;-57
2023/01/05 13:53:29;;;;;;;;;;;14.50;95.70;;;;;;5085197;28;19922;-58
2023/01/05 13:55:56;;;;;;;;;;;14.50;95.70;;;;;;5086128;28;19912;-57
2023/01/05 13:58:21;;;;;;;;;;;14.50;94.10;;;;;;5086436;28;20362;-59
2023/01/05 14:00:49;;;;;;;;;;;14.10;95.60;;;;;;5085923;28;19965;-58
2023/01/05 14:03:19;;;;;;;;;;;14.00;96.10;;;;;;5089388;28;19912;-56
2023/01/05 14:05:50;;;;;;;;;;;14.00;95.70;;;;;;5085480;28;19984;-56
2023/01/05 14:08:18;;;;;;;;;;;14.00;96.10;;;;;;5083218;28;19916;-56
2023/01/05 14:11:04;;;;;;;;;;;13.90;95.80;;;;;;5086248;28;19924;-56
2023/01/05 14:13:48;;;;;;;;;;;13.80;95.40;;;;;;5084254;28;19918;-56
2023/01/05 14:16:31;;;;;;;;;;;13.80;95.30;;;;;;5084149;28;19915;-62
2023/01/05 14:19:16;;;;;;;;;;;13.80;95.60;;;;;;5080447;28;19975;-56
2023/01/05 14:21:52;;;;;;;;;;;13.90;99.90;;;;;;5085232;28;20454;-57
2023/01/05 14:24:27;;;;;;;;;;;14.50;99.90;;;;;;5082184;28;19980;-57
2023/01/05 14:27:08;;;;;;;;;;;15.30;99.90;;;;;;5087034;28;19927;-54
2023/01/05 14:34:46;;;;;;;0.73;0.73;;;21.00;97.20;;;;;;5103978;27;20518;-51
2023/01/05 14:37:25;;;;;;;1.33;0.90;;;21.60;96.60;;;;;;5104593;28;20205;-56
2023/01/05 14:42:42;;;;;;;1.47;0.70;;;21.70;76.10;;;;;;5052513;28;20910;-74
2023/01/05 14:45:20;;;;;;;3.60;1.50;;;17.70;77.10;;;;;;5041555;28;20202;-71
2023/01/05 14:47:48;;;;;;;1.70;0.80;;;14.60;86.60;;;;;;5034404;28;20190;-55
2023/01/05 14:50:33;;;;;;;3.23;0.83;;;12.10;93.60;;;;;;5034769;28;20226;-57
2023/01/05 14:53:10;;;;;;;3.23;1.03;;;10.10;99.90;;;;;;5030236;28;20204;-57
2023/01/05 14:55:39;;;;;;;3.33;0.87;;;9.30;99.90;;;;;;5032367;28;20214;-56
2023/01/05 14:58:35;;;;;;;1.30;0.87;;;8.90;99.90;;;;;;5045318;28;20287;-54
2023/01/05 15:01:31;;;;;;;1.53;1.00;;;8.70;99.90;;;;;;5031934;28;20295;-56
2023/01/05 15:04:16;;;;;;;2.47;1.07;;;8.60;99.90;;;;;;5040517;28;20242;-55
2023/01/05 15:07:19;;;;;;;2.07;0.87;;;8.60;99.90;;;;;;5038275;28;20187;-55
2023/01/05 15:10:00;;;;;;;2.87;0.73;;;8.60;99.90;;;;;;5046770;28;20218;-53